Time;durP1;ratioP1;P1;durP2;ratioP2;P2;SDS_P1;SDS_P2;PMS_P1;PMS_P2;Temp;Humidity;BMP_temperature;BMP_pressure;BME280_temperature;BME280_humidity;BME280_pressure;Samples;Min_cycle;Max_cycle;Signal;HPM_P1;HPM_P2
2023/04/20 00:00:29;;;;;;;;;;;;;;;10.17;79.53;94869.13;5016417;28;1958;-54
2023/04/20 00:02:57;;;;;;;;;;;;;;;10.18;80.27;94861.94;4998954;28;1160;-53
2023/04/20 00:05:23;;;;;;;;;;;;;;;10.24;80.17;94867.44;5016503;28;958;-54
2023/04/20 00:07:49;;;;;;;;;;;;;;;10.20;80.03;94865.28;5016470;28;1052;-54
2023/04/20 00:10:15;;;;;;;;;;;;;;;9.91;79.46;94864.75;5016174;28;1098;-54
2023/04/20 00:12:41;;;;;;;;;;;;;;;9.74;78.25;94861.19;4996872;28;1540;-54
2023/04/20 00:15:07;;;;;;;;;;;;;;;9.65;79.16;94861.34;4996682;28;1243;-54
2023/04/20 00:17:33;;;;;;;;;;;;;;;9.85;79.75;94856.56;4996759;28;1061;-54
2023/04/20 00:19:59;;;;;;;;;;;;;;;10.02;78.99;94860.94;4996818;28;1906;-53
2023/04/20 00:22:27;;;;;;;;;;;;;;;9.80;80.39;94851.69;4996822;28;1050;-54
2023/04/20 00:24:53;;;;;;;;;;;;;;;9.64;79.85;94854.34;4996748;28;1034;-54
2023/04/20 00:27:19;;;;;;;;;;;;;;;9.61;80.05;94850.16;4996565;28;1029;-54
2023/04/20 00:29:45;;;;;;;;;;;;;;;9.76;79.59;94845.03;4996661;28;1054;-54
2023/04/20 00:32:11;;;;;;;;;;;;;;;9.88;79.31;94840.19;4996580;28;999;-54
2023/04/20 00:34:37;;;;;;;;;;;;;;;9.99;79.58;94836.38;4996403;28;1117;-54
2023/04/20 00:37:03;;;;;;;;;;;;;;;9.93;80.44;94844.03;4996449;28;1075;-54
2023/04/20 00:39:29;;;;;;;;;;;;;;;9.94;80.72;94837.72;4996278;28;1027;-54
2023/04/20 00:42:02;;;;;;;;;;;;;;;9.83;80.46;94827.34;4996123;28;1907;-54
2023/04/20 00:44:28;;;;;;;;;;;;;;;9.56;80.22;94839.97;4995526;28;978;-54
2023/04/20 00:46:56;;;;;;;;;;;;;;;9.56;80.25;94837.31;4996399;28;983;-54
2023/04/20 00:49:23;;;;;;;;;;;;;;;9.63;80.30;94842.00;5008495;28;1054;-54
2023/04/20 00:51:51;;;;;;;;;;;;;;;9.66;80.75;94841.66;5035445;28;982;-54
2023/04/20 00:54:17;;;;;;;;;;;;;;;9.66;80.29;94841.66;5035503;28;986;-54
2023/04/20 00:56:43;;;;;;;;;;;;;;;9.53;79.72;94842.97;5017721;28;1077;-54
2023/04/20 00:59:09;;;;;;;;;;;;;;;9.45;80.01;94832.25;5035315;28;963;-54
2023/04/20 01:01:36;;;;;;;;;;;;;;;9.49;79.24;94825.59;5035209;28;1965;-54
2023/04/20 01:04:02;;;;;;;;;;;;;;;9.54;79.21;94822.44;5035329;28;1137;-54
2023/04/20 01:06:29;;;;;;;;;;;;;;;9.30;80.17;94823.22;5035229;28;969;-54
2023/04/20 01:08:55;;;;;;;;;;;;;;;9.25;80.64;94823.69;5035289;28;1014;-54
2023/04/20 01:11:21;;;;;;;;;;;;;;;9.22;80.23;94825.81;5026540;28;1551;-54
2023/04/20 01:13:48;;;;;;;;;;;;;;;9.13;80.38;94823.13;5015155;28;1650;-54
2023/04/20 01:16:14;;;;;;;;;;;;;;;9.07;81.17;94831.78;5015215;28;1221;-54
2023/04/20 01:18:42;;;;;;;;;;;;;;;8.83;80.27;94834.31;5015082;28;1881;-53
2023/04/20 01:21:09;;;;;;;;;;;;;;;8.83;80.44;94826.31;5014969;28;1991;-54
2023/04/20 01:23:35;;;;;;;;;;;;;;;8.67;80.86;94829.72;5015305;28;983;-53
2023/04/20 01:26:05;;;;;;;;;;;;;;;8.68;81.68;94834.06;5014955;28;1864;-53
2023/04/20 01:28:31;;;;;;;;;;;;;;;8.77;81.80;94835.78;5014861;28;1093;-54
2023/04/20 01:30:57;;;;;;;;;;;;;;;8.90;82.33;94835.38;5015070;28;1061;-54
2023/04/20 01:33:23;;;;;;;;;;;;;;;8.87;80.40;94823.19;5014770;28;1042;-54
2023/04/20 01:35:50;;;;;;;;;;;;;;;8.44;79.97;94824.06;5014995;28;1197;-53
2023/04/20 01:38:21;;;;;;;;;;;;;;;8.35;81.91;94820.50;5014571;28;1055;-53
2023/04/20 01:40:47;;;;;;;;;;;;;;;8.54;82.06;94824.81;5014859;28;1989;-53
2023/04/20 01:43:13;;;;;;;;;;;;;;;8.77;81.24;94825.97;5014786;28;1014;-53
2023/04/20 01:45:39;;;;;;;;;;;;;;;8.92;81.46;94822.72;5014894;28;963;-53
2023/04/20 01:48:05;;;;;;;;;;;;;;;8.63;81.02;94821.19;5014565;28;1067;-53
2023/04/20 01:50:31;;;;;;;;;;;;;;;8.35;80.67;94816.00;5014772;28;1068;-53
2023/04/20 01:52:57;;;;;;;;;;;;;;;8.50;81.37;94810.97;5014734;28;1046;-53
2023/04/20 01:55:23;;;;;;;;;;;;;;;8.63;81.11;94807.03;5014116;28;1104;-53
2023/04/20 01:57:49;;;;;;;;;;;;;;;8.64;80.58;94809.56;5014637;28;1044;-53
2023/04/20 02:00:15;;;;;;;;;;;;;;;8.75;80.44;94805.78;5014599;28;1938;-53
2023/04/20 02:02:41;;;;;;;;;;;;;;;8.64;81.05;94809.56;5014352;28;1025;-53
2023/04/20 02:05:07;;;;;;;;;;;;;;;8.48;82.62;94812.97;5014252;28;1046;-53
2023/04/20 02:07:33;;;;;;;;;;;;;;;8.49;82.68;94808.47;5014207;28;1014;-53
2023/04/20 02:09:59;;;;;;;;;;;;;;;8.62;81.30;94818.72;5014189;28;1576;-54
2023/04/20 02:12:25;;;;;;;;;;;;;;;8.77;81.45;94812.63;5014052;28;1802;-53
2023/04/20 02:14:51;;;;;;;;;;;;;;;8.91;80.33;94805.03;5014390;28;1048;-53
2023/04/20 02:17:18;;;;;;;;;;;;;;;8.86;81.17;94807.34;5013934;28;1284;-53
2023/04/20 02:19:45;;;;;;;;;;;;;;;8.68;81.49;94805.56;5014151;28;962;-54
2023/04/20 02:22:12;;;;;;;;;;;;;;;8.63;81.44;94809.72;5013920;28;1990;-53
2023/04/20 02:24:38;;;;;;;;;;;;;;;8.67;81.53;94803.06;5014191;28;1038;-53
2023/04/20 02:27:04;;;;;;;;;;;;;;;8.64;81.37;94809.56;5014146;28;1120;-53
2023/04/20 02:29:30;;;;;;;;;;;;;;;8.46;81.50;94812.28;5013967;28;971;-53
2023/04/20 02:31:56;;;;;;;;;;;;;;;8.25;82.73;94801.94;5014141;28;1026;-53
2023/04/20 02:34:23;;;;;;;;;;;;;;;8.09;82.96;94813.31;5013629;28;1110;-53
2023/04/20 02:36:49;;;;;;;;;;;;;;;8.11;82.33;94821.16;5014028;28;974;-53
2023/04/20 02:39:15;;;;;;;;;;;;;;;8.25;82.68;94817.06;5013570;28;1215;-53
2023/04/20 02:41:41;;;;;;;;;;;;;;;8.18;82.79;94815.03;5013610;28;1903;-53
2023/04/20 02:44:07;;;;;;;;;;;;;;;8.26;81.75;94822.25;5013696;28;1051;-53
2023/04/20 02:46:33;;;;;;;;;;;;;;;8.34;81.17;94830.28;5013723;28;1142;-53
2023/04/20 02:48:59;;;;;;;;;;;;;;;8.45;81.17;94825.75;5013601;28;1117;-54
2023/04/20 02:51:25;;;;;;;;;;;;;;;8.60;81.76;94833.00;5013517;28;1082;-55
2023/04/20 02:53:51;;;;;;;;;;;;;;;8.67;81.21;94827.91;5013473;28;1046;-55
2023/04/20 02:56:17;;;;;;;;;;;;;;;8.72;81.47;94825.59;5013427;28;1118;-55
2023/04/20 02:58:43;;;;;;;;;;;;;;;8.81;81.03;94823.00;5013809;28;1034;-54
2023/04/20 03:01:09;;;;;;;;;;;;;;;8.86;81.66;94823.31;5013304;28;1906;-53
2023/04/20 03:03:35;;;;;;;;;;;;;;;8.86;81.76;94826.00;5013391;28;1046;-53
2023/04/20 03:06:01;;;;;;;;;;;;;;;8.82;81.36;94828.16;5012971;28;1053;-53
2023/04/20 03:08:27;;;;;;;;;;;;;;;8.66;80.69;94828.88;5013521;28;1034;-53
2023/04/20 03:10:53;;;;;;;;;;;;;;;8.44;81.66;94826.75;5008663;28;1302;-53
2023/04/20 03:13:19;;;;;;;;;;;;;;;8.53;81.82;94821.31;4993598;28;1058;-53
2023/04/20 03:15:45;;;;;;;;;;;;;;;8.64;81.49;94828.22;4993513;28;1886;-54
2023/04/20 03:18:11;;;;;;;;;;;;;;;8.61;81.90;94836.50;4993873;28;1045;-53
2023/04/20 03:20:37;;;;;;;;;;;;;;;8.72;81.31;94827.44;4993630;28;1910;-53
2023/04/20 03:23:03;;;;;;;;;;;;;;;8.62;81.27;94824.03;4993642;28;1053;-53
2023/04/20 03:25:29;;;;;;;;;;;;;;;8.13;82.19;94832.47;4993514;28;1010;-53
2023/04/20 03:27:55;;;;;;;;;;;;;;;7.96;82.77;94832.31;4993600;28;1042;-52
2023/04/20 03:30:21;;;;;;;;;;;;;;;8.08;82.59;94830.28;4993737;28;1047;-52
2023/04/20 03:32:47;;;;;;;;;;;;;;;8.25;82.23;94830.41;4993850;28;1261;-53
2023/04/20 03:35:13;;;;;;;;;;;;;;;8.48;81.84;94825.44;4993785;28;999;-53
2023/04/20 03:37:39;;;;;;;;;;;;;;;8.48;82.65;94833.41;4993513;28;1091;-53
2023/04/20 03:40:06;;;;;;;;;;;;;;;8.31;82.34;94841.28;4993415;28;1903;-52
2023/04/20 03:42:32;;;;;;;;;;;;;;;8.17;82.52;94833.84;4993718;28;963;-53
2023/04/20 03:44:58;;;;;;;;;;;;;;;8.34;83.36;94838.28;4993460;28;1316;-53
2023/04/20 03:47:24;;;;;;;;;;;;;;;8.49;82.61;94832.44;4993515;28;1125;-51
2023/04/20 03:49:50;;;;;;;;;;;;;;;8.48;81.42;94823.63;4993457;28;1105;-52
2023/04/20 03:52:16;;;;;;;;;;;;;;;8.47;82.52;94823.78;4993484;28;979;-52
2023/04/20 03:54:42;;;;;;;;;;;;;;;8.44;83.26;94830.22;4993409;28;1070;-53
2023/04/20 03:57:08;;;;;;;;;;;;;;;8.29;84.12;94837.94;4993643;28;967;-53
2023/04/20 03:59:34;;;;;;;;;;;;;;;8.21;83.56;94828.06;4993281;28;1038;-54
2023/04/20 04:02:01;;;;;;;;;;;;;;;8.20;84.10;94833.53;4993507;28;1910;-53
2023/04/20 04:04:27;;;;;;;;;;;;;;;8.36;83.89;94832.81;4993548;28;972;-55
2023/04/20 04:06:53;;;;;;;;;;;;;;;8.43;83.48;94838.41;4993491;28;1002;-53
2023/04/20 04:09:19;;;;;;;;;;;;;;;8.42;83.47;94839.38;4993137;28;1037;-54
2023/04/20 04:11:45;;;;;;;;;;;;;;;8.58;83.59;94832.34;5005201;28;1607;-54
2023/04/20 04:14:11;;;;;;;;;;;;;;;8.71;84.11;94836.44;5012945;28;1059;-54
2023/04/20 04:16:37;;;;;;;;;;;;;;;8.78;84.10;94843.63;5012573;28;1204;-54
2023/04/20 04:19:03;;;;;;;;;;;;;;;8.94;84.24;94850.88;5025037;28;1304;-54
2023/04/20 04:21:29;;;;;;;;;;;;;;;8.96;83.55;94848.06;5036118;28;2019;-54
2023/04/20 04:23:55;;;;;;;;;;;;;;;8.86;85.15;94847.31;5036234;28;998;-54
2023/04/20 04:26:23;;;;;;;;;;;;;;;8.75;85.42;94846.59;5035897;28;1218;-54
2023/04/20 04:28:52;;;;;;;;;;;;;;;8.72;85.11;94857.56;5035898;28;1097;-54
2023/04/20 04:31:20;;;;;;;;;;;;;;;8.75;84.58;94851.09;5036128;28;997;-54
2023/04/20 04:33:46;;;;;;;;;;;;;;;8.95;84.75;94854.38;5036093;28;1049;-55
2023/04/20 04:36:14;;;;;;;;;;;;;;;9.12;84.85;94856.13;5035925;28;1029;-54
2023/04/20 04:38:43;;;;;;;;;;;;;;;9.24;84.40;94859.38;5035700;28;1033;-53
2023/04/20 04:41:09;;;;;;;;;;;;;;;9.33;84.33;94868.22;5035666;28;1997;-54
2023/04/20 04:43:36;;;;;;;;;;;;;;;9.36;83.41;94871.41;5035797;28;978;-54
2023/04/20 04:46:07;;;;;;;;;;;;;;;9.11;84.88;94872.31;5035685;28;1232;-54
2023/04/20 04:48:34;;;;;;;;;;;;;;;9.10;84.85;94874.13;5035432;28;907;-54
2023/04/20 04:51:00;;;;;;;;;;;;;;;9.22;84.64;94876.50;5035429;28;1053;-54
2023/04/20 04:53:26;;;;;;;;;;;;;;;9.36;85.07;94879.41;5035354;28;1109;-54
2023/04/20 04:55:52;;;;;;;;;;;;;;;9.44;84.00;94873.28;5035699;28;1129;-54
2023/04/20 04:58:18;;;;;;;;;;;;;;;9.42;84.42;94875.28;5035589;28;997;-54
2023/04/20 05:00:44;;;;;;;;;;;;;;;9.40;83.71;94861.25;5017708;28;1910;-54
2023/04/20 05:03:10;;;;;;;;;;;;;;;9.45;83.65;94869.63;5035279;28;942;-54
2023/04/20 05:05:37;;;;;;;;;;;;;;;9.64;83.59;94873.03;5035151;28;1077;-54
2023/04/20 05:08:03;;;;;;;;;;;;;;;9.80;84.04;94874.91;5035441;28;1069;-54
2023/04/20 05:10:29;;;;;;;;;;;;;;;9.95;84.21;94875.94;5033388;28;1415;-54
2023/04/20 05:12:57;;;;;;;;;;;;;;;10.23;83.36;94870.31;5015492;28;1009;-54
2023/04/20 05:15:23;;;;;;;;;;;;;;;10.35;81.07;94875.16;5014991;28;1237;-55
2023/04/20 05:17:49;;;;;;;;;;;;;;;10.27;81.06;94875.16;5015342;28;985;-54
2023/04/20 05:20:15;;;;;;;;;;;;;;;10.34;82.07;94876.19;5014924;28;1918;-54
2023/04/20 05:22:41;;;;;;;;;;;;;;;10.64;80.44;94868.50;5014553;28;1057;-54
2023/04/20 05:25:08;;;;;;;;;;;;;;;10.64;79.98;94873.84;5014579;28;977;-54
2023/04/20 05:27:34;;;;;;;;;;;;;;;10.66;78.95;94877.19;5014506;28;1050;-54
2023/04/20 05:30:00;;;;;;;;;;;;;;;10.45;81.37;94879.53;4996343;28;1066;-54
2023/04/20 05:32:26;;;;;;;;;;;;;;;10.37;81.95;94871.50;5014844;28;1002;-54
2023/04/20 05:34:52;;;;;;;;;;;;;;;10.49;82.56;94875.50;5014770;28;1006;-55
2023/04/20 05:37:18;;;;;;;;;;;;;;;10.35;84.75;94874.34;5014575;28;1090;-54
2023/04/20 05:39:45;;;;;;;;;;;;;;;10.25;85.65;94874.47;5014798;28;1093;-54
2023/04/20 05:42:11;;;;;;;;;;;;;;;10.45;83.44;94880.38;5014811;28;1906;-54
2023/04/20 05:44:39;;;;;;;;;;;;;;;10.55;82.37;94880.22;5014912;28;990;-54
2023/04/20 05:47:07;;;;;;;;;;;;;;;10.51;82.51;94877.03;5014622;28;1002;-55
2023/04/20 05:49:34;;;;;;;;;;;;;;;10.55;82.74;94877.53;5014393;28;1010;-54
2023/04/20 05:52:00;;;;;;;;;;;;;;;10.65;81.94;94888.06;5014712;28;967;-55
2023/04/20 05:54:27;;;;;;;;;;;;;;;10.61;80.77;94881.38;5014484;28;1034;-54
2023/04/20 05:56:53;;;;;;;;;;;;;;;10.60;80.33;94885.88;5014598;28;983;-55
2023/04/20 05:59:21;;;;;;;;;;;;;;;10.71;81.05;94880.19;5014251;28;1208;-55
2023/04/20 06:01:47;;;;;;;;;;;;;;;10.72;80.60;94883.72;5013767;28;1981;-55
2023/04/20 06:04:13;;;;;;;;;;;;;;;10.88;80.11;94883.66;5013888;28;1026;-54
2023/04/20 06:06:39;;;;;;;;;;;;;;;10.91;80.23;94883.34;5014346;28;1026;-55
2023/04/20 06:09:05;;;;;;;;;;;;;;;10.99;77.67;94887.00;5014410;28;1030;-55
2023/04/20 06:11:31;;;;;;;;;;;;;;;11.10;77.10;94878.63;5014196;28;1332;-55
2023/04/20 06:13:57;;;;;;;;;;;;;;;11.21;76.28;94875.59;5014065;28;1133;-55
2023/04/20 06:16:23;;;;;;;;;;;;;;;11.56;76.29;94881.47;5013826;28;1457;-55
2023/04/20 06:18:49;;;;;;;;;;;;;;;11.68;76.15;94884.59;5013919;28;1121;-55
2023/04/20 06:21:16;;;;;;;;;;;;;;;11.73;77.49;94887.59;5013641;28;1914;-55
2023/04/20 06:23:43;;;;;;;;;;;;;;;11.68;74.97;94887.28;5014223;28;1033;-55
2023/04/20 06:26:09;;;;;;;;;;;;;;;11.86;74.03;94889.72;5013984;28;1073;-55
2023/04/20 06:28:36;;;;;;;;;;;;;;;11.68;74.33;94884.59;5013937;28;982;-55
2023/04/20 06:31:03;;;;;;;;;;;;;;;11.84;75.49;94891.75;5013809;28;1129;-55
2023/04/20 06:33:29;;;;;;;;;;;;;;;12.10;73.57;94886.94;5013560;28;1001;-55
2023/04/20 06:35:55;;;;;;;;;;;;;;;12.21;73.35;94893.72;5013897;28;1068;-55
2023/04/20 06:38:22;;;;;;;;;;;;;;;12.21;73.17;94892.91;5013867;28;962;-55
2023/04/20 06:40:48;;;;;;;;;;;;;;;12.25;72.69;94895.03;5012741;28;1914;-55
2023/04/20 06:43:14;;;;;;;;;;;;;;;12.62;73.49;94885.38;5013761;28;1038;-55
2023/04/20 06:45:40;;;;;;;;;;;;;;;12.76;72.42;94890.97;5013617;28;1049;-55
2023/04/20 06:48:06;;;;;;;;;;;;;;;12.70;70.38;94887.16;5013738;28;1047;-55
2023/04/20 06:50:33;;;;;;;;;;;;;;;12.74;70.56;94891.16;5013578;28;1086;-55
2023/04/20 06:52:58;;;;;;;;;;;;;;;12.88;69.93;94895.75;5013730;28;1033;-55
2023/04/20 06:55:25;;;;;;;;;;;;;;;12.86;69.60;94889.72;5013646;28;1055;-55
2023/04/20 06:57:50;;;;;;;;;;;;;;;12.78;61.67;94894.31;4996216;28;1037;-55
2023/04/20 07:00:17;;;;;;;;;;;;;;;12.89;61.91;94900.06;5013375;28;1918;-55
2023/04/20 07:02:44;;;;;;;;;;;;;;;12.97;63.32;94899.16;4996137;28;1038;-55
2023/04/20 07:05:10;;;;;;;;;;;;;;;13.05;66.14;94907.16;5013431;28;1029;-54
2023/04/20 07:07:37;;;;;;;;;;;;;;;13.16;65.13;94896.97;5013239;28;1038;-55
2023/04/20 07:10:03;;;;;;;;;;;;;;;12.97;61.34;94909.06;5013504;28;1057;-54
2023/04/20 07:12:29;;;;;;;;;;;;;;;13.11;64.88;94900.22;4995468;28;1522;-54
2023/04/20 07:14:55;;;;;;;;;;;;;;;13.22;65.48;94905.16;4993761;28;986;-55
2023/04/20 07:17:21;;;;;;;;;;;;;;;13.29;63.86;94908.75;4993448;28;1075;-55
2023/04/20 07:19:47;;;;;;;;;;;;;;;13.26;65.55;94913.63;4993815;28;980;-55
2023/04/20 07:22:14;;;;;;;;;;;;;;;13.02;64.13;94912.06;4993727;28;1997;-55
2023/04/20 07:24:39;;;;;;;;;;;;;;;13.01;63.29;94915.75;4993644;28;1074;-55
2023/04/20 07:27:07;;;;;;;;;;;;;;;12.91;61.10;94909.81;4993548;28;1046;-55
2023/04/20 07:29:33;;;;;;;;;;;;;;;12.95;61.74;94908.41;4993458;28;1109;-56
2023/04/20 07:31:59;;;;;;;;;;;;;;;13.09;63.90;94905.78;4993604;28;1113;-56
2023/04/20 07:34:25;;;;;;;;;;;;;;;13.28;65.17;94909.78;4993717;28;995;-57
2023/04/20 07:36:51;;;;;;;;;;;;;;;13.57;62.45;94910.00;4993566;28;1070;-57
2023/04/20 07:39:17;;;;;;;;;;;;;;;13.71;61.14;94908.31;4993614;28;987;-57
2023/04/20 07:41:43;;;;;;;;;;;;;;;13.77;61.35;94912.94;4993463;28;1910;-57
2023/04/20 07:44:10;;;;;;;;;;;;;;;13.76;59.47;94904.06;4993632;28;963;-56
2023/04/20 07:46:35;;;;;;;;;;;;;;;13.86;60.24;94911.84;4993737;28;1033;-57
2023/04/20 07:49:01;;;;;;;;;;;;;;;14.06;59.21;94912.09;4993619;28;1321;-57
2023/04/20 07:51:29;;;;;;;;;;;;;;;14.25;59.23;94914.16;4993330;28;1650;-56
2023/04/20 07:53:56;;;;;;;;;;;;;;;14.24;58.48;94919.72;4997028;28;1014;-57
2023/04/20 07:56:21;;;;;;;;;;;;;;;14.16;57.40;94919.84;4997035;28;1524;-57
2023/04/20 07:58:47;;;;;;;;;;;;;;;14.29;57.17;94919.19;4997237;28;1002;-57
2023/04/20 08:01:13;;;;;;;;;;;;;;;14.19;59.98;94916.78;4996865;28;1988;-56
2023/04/20 08:03:40;;;;;;;;;;;;;;;14.31;60.94;94917.97;4997243;28;982;-56
2023/04/20 08:06:06;;;;;;;;;;;;;;;14.19;57.32;94916.78;4996956;28;1109;-55
2023/04/20 08:08:32;;;;;;;;;;;;;;;14.10;57.89;94910.69;4997000;28;976;-57
2023/04/20 08:10:58;;;;;;;;;;;;;;;14.25;60.19;94916.03;5002214;28;1594;-56
2023/04/20 08:13:24;;;;;;;;;;;;;;;14.43;59.44;94910.22;5016300;28;1221;-55
2023/04/20 08:15:50;;;;;;;;;;;;;;;14.43;57.74;94910.22;5016148;28;1272;-56
2023/04/20 08:18:16;;;;;;;;;;;;;;;14.33;60.15;94909.72;5016522;28;1070;-56
2023/04/20 08:20:44;;;;;;;;;;;;;;;14.34;59.02;94906.84;5016410;28;1914;-56
2023/04/20 08:23:10;;;;;;;;;;;;;;;14.16;59.41;94898.34;5016210;28;1035;-56
2023/04/20 08:25:40;;;;;;;;;;;;;;;14.01;59.90;94901.06;5016481;28;978;-56
2023/04/20 08:28:06;;;;;;;;;;;;;;;13.82;58.68;94897.94;5016136;28;1062;-56
2023/04/20 08:30:32;;;;;;;;;;;;;;;13.85;58.48;94897.56;5016255;28;1063;-56
2023/04/20 08:32:58;;;;;;;;;;;;;;;14.04;60.66;94906.06;5016273;28;1021;-56
2023/04/20 08:35:24;;;;;;;;;;;;;;;14.09;59.40;94898.25;5015807;28;1042;-56
2023/04/20 08:37:50;;;;;;;;;;;;;;;14.09;57.42;94900.94;5016155;28;1284;-56
2023/04/20 08:40:16;;;;;;;;;;;;;;;14.35;57.02;94903.09;5015838;28;1105;-56
2023/04/20 08:42:42;;;;;;;;;;;;;;;14.54;57.48;94898.94;5016179;28;1034;-56
2023/04/20 08:45:08;;;;;;;;;;;;;;;14.59;59.23;94898.44;5016001;28;1038;-55
2023/04/20 08:47:35;;;;;;;;;;;;;;;14.82;55.74;94895.53;5015665;28;1082;-56
2023/04/20 08:50:02;;;;;;;;;;;;;;;14.99;56.59;94894.22;5015863;28;1022;-55
2023/04/20 08:52:28;;;;;;;;;;;;;;;15.14;57.09;94887.91;5015525;28;1066;-56
2023/04/20 08:54:54;;;;;;;;;;;;;;;15.37;55.60;94896.56;5015900;28;1057;-56
2023/04/20 08:57:20;;;;;;;;;;;;;;;15.28;55.24;94886.16;5015549;28;1046;-56
2023/04/20 08:59:46;;;;;;;;;;;;;;;15.19;54.89;94886.28;5015789;28;1025;-56
2023/04/20 09:02:12;;;;;;;;;;;;;;;15.53;55.77;94886.50;5015308;28;1962;-56
2023/04/20 09:04:39;;;;;;;;;;;;;;;15.48;53.89;94883.56;5014456;28;1426;-55
2023/04/20 09:07:06;;;;;;;;;;;;;;;15.70;54.65;94885.16;5015423;28;1055;-55
2023/04/20 09:09:32;;;;;;;;;;;;;;;15.59;54.18;94881.19;5015253;28;1885;-56
2023/04/20 09:12:00;;;;;;;;;;;;;;;15.60;54.88;94884.69;5001974;28;1349;-56
2023/04/20 09:14:27;;;;;;;;;;;;;;;15.68;54.76;94887.22;4995572;28;1198;-56
2023/04/20 09:16:56;;;;;;;;;;;;;;;15.55;55.73;94881.75;4995508;28;1207;-56
2023/04/20 09:19:22;;;;;;;;;;;;;;;15.65;56.08;94881.41;4995555;28;1961;-57
2023/04/20 09:21:49;;;;;;;;;;;;;;;15.74;55.43;94883.75;4978378;28;1914;-56
2023/04/20 09:24:15;;;;;;;;;;;;;;;15.66;54.63;94880.38;4995387;28;1054;-56
2023/04/20 09:26:41;;;;;;;;;;;;;;;15.53;54.57;94879.25;4995428;28;1065;-56
2023/04/20 09:29:17;;;;;;;;;;;;;;;15.80;54.67;94874.03;4995468;28;1283;-56
2023/04/20 09:31:44;;;;;;;;;;;;;;;16.05;55.17;94879.75;4995415;28;1062;-56
2023/04/20 09:34:10;;;;;;;;;;;;;;;16.16;51.22;94883.72;4995607;28;1215;-56
2023/04/20 09:36:37;;;;;;;;;;;;;;;16.12;54.95;94871.69;4995708;28;963;-56
2023/04/20 09:39:08;;;;;;;;;;;;;;;16.16;53.87;94870.25;4995818;28;999;-56
2023/04/20 09:41:35;;;;;;;;;;;;;;;16.02;52.78;94869.38;4995136;28;2004;-56
2023/04/20 09:44:01;;;;;;;;;;;;;;;16.05;54.04;94868.97;4995408;28;966;-56
2023/04/20 09:46:30;;;;;;;;;;;;;;;16.02;53.89;94871.25;4995284;28;978;-56
2023/04/20 09:48:58;;;;;;;;;;;;;;;15.96;53.88;94867.50;4995031;28;1118;-56
2023/04/20 09:51:26;;;;;;;;;;;;;;;16.02;53.73;94863.16;4995025;28;990;-56
2023/04/20 09:53:56;;;;;;;;;;;;;;;15.91;52.91;94867.25;4995072;28;979;-56
2023/04/20 09:56:22;;;;;;;;;;;;;;;15.97;53.96;94870.00;4995018;28;1043;-56
2023/04/20 09:58:48;;;;;;;;;;;;;;;15.86;54.11;94864.31;4995076;28;1022;-56
2023/04/20 10:01:14;;;;;;;;;;;;;;;15.66;54.32;94862.34;4977401;28;1922;-56
2023/04/20 10:03:41;;;;;;;;;;;;;;;15.66;52.39;94859.63;4994836;28;1639;-56
2023/04/20 10:06:26;;;;;;;;;;;;;;;15.56;53.72;94859.19;4994688;28;1074;-55
2023/04/20 10:08:53;;;;;;;;;;;;;;;15.66;53.56;94856.94;4994678;28;1034;-56
2023/04/20 10:11:25;;;;;;;;;;;;;;;15.84;54.09;94853.75;5002791;28;1728;-56
2023/04/20 10:13:51;;;;;;;;;;;;;;;16.00;53.60;94858.78;5014230;28;1043;-56
2023/04/20 10:19:48;;;;;;;;;;;;;;;16.28;51.64;94867.81;5014069;28;1173;-57
2023/04/20 10:22:25;;;;;;;;;;;;;;;16.53;51.56;94857.28;5013874;28;1997;-57
2023/04/20 10:24:51;;;;;;;;;;;;;;;16.79;51.15;94854.59;5014152;28;1046;-56
2023/04/20 10:27:21;;;;;;;;;;;;;;;17.01;50.69;94845.50;5013943;28;1874;-57
2023/04/20 10:29:47;;;;;;;;;;;;;;;17.22;51.19;94850.66;5013955;28;1061;-56
2023/04/20 10:32:26;;;;;;;;;;;;;;;17.05;50.22;94839.44;5014069;28;998;-57
2023/04/20 10:35:06;;;;;;;;;;;;;;;16.80;50.27;94844.63;5013840;28;1101;-56
2023/04/20 10:37:32;;;;;;;;;;;;;;;16.66;52.05;94843.78;5013829;28;1001;-56
2023/04/20 10:39:59;;;;;;;;;;;;;;;17.05;52.35;94841.31;5013846;28;1877;-56
2023/04/20 10:42:25;;;;;;;;;;;;;;;16.98;49.83;94841.34;5013684;28;1966;-56
2023/04/20 10:44:52;;;;;;;;;;;;;;;17.11;51.75;94838.63;5013740;28;1102;-57
2023/04/20 10:47:31;;;;;;;;;;;;;;;17.00;46.66;94843.81;5013645;28;1560;-56
2023/04/20 10:50:07;;;;;;;;;;;;;;;17.15;50.73;94839.88;5013977;28;1041;-57
2023/04/20 10:52:34;;;;;;;;;;;;;;;17.32;50.36;94844.81;5013868;28;974;-56
2023/04/20 10:55:01;;;;;;;;;;;;;;;17.36;50.24;94846.09;5013611;28;1018;-57
2023/04/20 10:57:27;;;;;;;;;;;;;;;17.69;50.71;94846.00;5028218;28;1042;-57
2023/04/20 10:59:53;;;;;;;;;;;;;;;17.61;49.55;94842.72;5015961;28;971;-57
2023/04/20 11:02:19;;;;;;;;;;;;;;;17.60;49.84;94847.25;5033156;28;1991;-57
2023/04/20 11:04:45;;;;;;;;;;;;;;;17.62;48.35;94849.75;5033285;28;1058;-57
2023/04/20 11:07:15;;;;;;;;;;;;;;;17.44;49.26;94842.31;5015654;28;979;-57
2023/04/20 11:09:42;;;;;;;;;;;;;;;17.39;48.81;94852.94;5033060;28;1846;-57
2023/04/20 11:12:13;;;;;;;;;;;;;;;17.35;48.39;94845.22;5018114;28;1594;-57
2023/04/20 11:14:52;;;;;;;;;;;;;;;17.39;50.66;94842.94;5013572;28;972;-57
2023/04/20 11:17:18;;;;;;;;;;;;;;;17.52;49.13;94842.91;5013257;28;1120;-57
2023/04/20 11:19:45;;;;;;;;;;;;;;;17.67;48.69;94842.66;5013165;28;1146;-56
2023/04/20 11:22:19;;;;;;;;;;;;;;;17.94;48.07;94848.03;5013120;28;1971;-57
2023/04/20 11:24:45;;;;;;;;;;;;;;;18.54;48.07;94839.59;5013365;28;1046;-57
2023/04/20 11:27:18;;;;;;;;;;;;;;;18.70;47.39;94841.78;5014127;28;1054;-57
2023/04/20 11:29:44;;;;;;;;;;;;;;;18.61;45.53;94842.25;5017275;28;1096;-57
2023/04/20 11:32:10;;;;;;;;;;;;;;;18.33;47.96;94836.19;5017314;28;1220;-56
2023/04/20 11:34:37;;;;;;;;;;;;;;;18.04;47.82;94832.19;5017150;28;1054;-56
2023/04/20 11:37:08;;;;;;;;;;;;;;;17.57;47.63;94839.59;5017371;28;966;-56
2023/04/20 11:39:35;;;;;;;;;;;;;;;17.51;49.57;94837.72;5017244;28;1041;-56
2023/04/20 11:42:01;;;;;;;;;;;;;;;17.35;48.24;94839.81;5017071;28;1918;-56
2023/04/20 11:44:27;;;;;;;;;;;;;;;17.02;50.52;94837.19;5017167;28;974;-56
2023/04/20 11:46:55;;;;;;;;;;;;;;;16.92;49.66;94842.16;5017094;28;1097;-56
2023/04/20 11:49:22;;;;;;;;;;;;;;;16.66;51.23;94841.09;5016862;28;1152;-56
2023/04/20 11:51:48;;;;;;;;;;;;;;;16.55;50.88;94836.31;5017123;28;1050;-56
2023/04/20 11:54:15;;;;;;;;;;;;;;;16.37;51.68;94840.44;5016982;28;975;-56
2023/04/20 11:56:41;;;;;;;;;;;;;;;16.20;51.54;94839.97;5016883;28;1090;-56
2023/04/20 11:59:07;;;;;;;;;;;;;;;16.09;52.12;94839.75;4999594;28;1317;-56
2023/04/20 12:01:34;;;;;;;;;;;;;;;15.69;56.23;94840.38;5016449;28;1988;-55
2023/04/20 12:04:00;;;;;;;;;;;;;;;15.07;61.25;94836.72;5016635;28;2008;-56
2023/04/20 12:06:27;;;;;;;;;;;;;;;14.79;62.75;94853.66;5016507;28;1046;-56
2023/04/20 12:08:54;;;;;;;;;;;;;;;14.76;63.03;94847.84;5016580;28;1054;-56
2023/04/20 12:11:20;;;;;;;;;;;;;;;14.64;62.75;94850.22;5016626;28;1302;-56
2023/04/20 12:13:46;;;;;;;;;;;;;;;14.62;62.85;94838.84;5016511;28;1045;-56
2023/04/20 12:16:12;;;;;;;;;;;;;;;14.56;63.53;94835.03;5016327;28;1048;-56
2023/04/20 12:18:38;;;;;;;;;;;;;;;14.40;65.98;94843.38;5016211;28;1151;-56
2023/04/20 12:21:04;;;;;;;;;;;;;;;14.43;65.52;94835.72;4998826;28;1902;-55
2023/04/20 12:23:31;;;;;;;;;;;;;;;14.52;64.57;94843.69;5016363;28;971;-55
2023/04/20 12:25:58;;;;;;;;;;;;;;;14.38;65.72;94835.50;5016339;28;1021;-55
2023/04/20 12:28:24;;;;;;;;;;;;;;;14.34;63.97;94842.28;5016097;28;1023;-55
2023/04/20 12:30:50;;;;;;;;;;;;;;;14.35;65.46;94843.13;5016109;28;1322;-56
2023/04/20 12:33:16;;;;;;;;;;;;;;;14.40;64.76;94838.81;5016220;28;1227;-56
2023/04/20 12:35:42;;;;;;;;;;;;;;;14.57;64.66;94838.56;5016245;28;978;-55
2023/04/20 12:38:08;;;;;;;;;;;;;;;14.67;64.66;94831.03;5015953;28;1054;-55
2023/04/20 12:40:34;;;;;;;;;;;;;;;14.96;67.33;94827.31;5016011;28;1915;-56
2023/04/20 12:43:00;;;;;;;;;;;;;;;15.25;69.95;94816.50;5016214;28;967;-56
2023/04/20 12:45:26;;;;;;;;;;;;;;;15.39;63.44;94815.56;5016036;28;1037;-56
2023/04/20 12:47:52;;;;;;;;;;;;;;;15.28;63.00;94799.97;5015674;28;1034;-55
2023/04/20 12:50:18;;;;;;;;;;;;;;;15.14;62.59;94799.91;5015643;28;1078;-56
2023/04/20 12:52:44;;;;;;;;;;;;;;;15.21;61.15;94799.91;5015738;28;931;-55
2023/04/20 12:55:11;;;;;;;;;;;;;;;15.51;60.94;94797.78;5015581;28;1082;-55
2023/04/20 12:57:37;;;;;;;;;;;;;;;15.83;64.14;94794.66;5015699;28;1054;-56
2023/04/20 13:00:05;;;;;;;;;;;;;;;16.14;62.28;94794.09;5015485;28;1126;-56
2023/04/20 13:02:31;;;;;;;;;;;;;;;16.55;60.55;94793.94;5015321;28;1910;-56